D/T METAR WX W/DIR W/SPE G/SPE TEMP DEWP
15/01/19 21:20 EGLF 152120Z 21010KT 9999 SCT028 07/05 Q1015 SSW (210°) 11.5mph 7°C 5°C
15/01/19 20:50 EGLF 152050Z 22010KT 9999 FEW028 07/05 Q1015 SW (220°) 11.5mph 7°C 5°C
15/01/19 19:50 EGLF 151950Z 21008KT 180V240 9999 SCT028 08/05 Q1016 SSW (210°) 9.2mph 8°C 5°C
15/01/19 19:20 EGLF 151920Z 22012KT 9999 BKN028 08/05 Q1016 SW (220°) 13.8mph 8°C 5°C
15/01/19 18:50 EGLF 151850Z 22012KT 9999 SCT028 09/05 Q1016 SW (220°) 13.8mph 9°C 5°C
15/01/19 18:20 EGLF 151820Z 22012KT 9999 BKN028 08/05 Q1016 SW (220°) 13.8mph 8°C 5°C
15/01/19 17:50 EGLF 151750Z 22010KT 9999 BKN028 08/05 Q1017 SW (220°) 11.5mph 8°C 5°C
15/01/19 17:20 EGLF 151720Z 22009KT 9999 BKN029 08/05 Q1017 SW (220°) 10.4mph 8°C 5°C
15/01/19 16:50 EGLF 151650Z 22011KT 9999 SCT029 BKN033 08/05 Q1017 SW (220°) 12.7mph 8°C 5°C
15/01/19 16:20 EGLF 151620Z 22010KT 9999 FEW020 BKN030 09/05 Q1017 SW (220°) 11.5mph 9°C 5°C
15/01/19 15:50 EGLF 151550Z 22010KT 9999 FEW021 BKN033 09/05 Q1017 SW (220°) 11.5mph 9°C 5°C
15/01/19 15:20 EGLF 151520Z 22010KT 9999 FEW022 BKN030 09/06 Q1018 SW (220°) 11.5mph 9°C 6°C
15/01/19 14:50 EGLF 151450Z 22011KT 9999 SCT022 BKN030 09/06 Q1018 SW (220°) 12.7mph 9°C 6°C
15/01/19 14:20 EGLF 151420Z 23010KT 9999 SCT022 BKN030 09/06 Q1018 SW (230°) 11.5mph 9°C 6°C
15/01/19 13:20 EGLF 151320Z 24013KT 9999 BKN016 08/06 Q1019 WSW (240°) 15.0mph 8°C 6°C
15/01/19 12:20 EGLF 151220Z 23012KT 9999 FEW012 SCT016 BKN020 08/06 Q1019 SW (230°) 13.8mph 8°C 6°C
15/01/19 11:50 EGLF 151150Z 23013KT 9999 FEW015 BKN025 08/06 Q1020 SW (230°) 15.0mph 8°C 6°C
15/01/19 11:20 EGLF 151120Z 23013KT 9999 BKN029 08/06 Q1020 SW (230°) 15.0mph 8°C 6°C
15/01/19 10:50 EGLF 151050Z 24012KT 9999 FEW018 BKN029 08/05 Q1020 WSW (240°) 13.8mph 8°C 5°C
15/01/19 10:20 EGLF 151020Z 23011KT 9999 FEW014 BKN027 07/05 Q1021 SW (230°) 12.7mph 7°C 5°C
15/01/19 09:50 EGLF 150950Z 22010KT 9999 BKN026 07/05 Q1021 SW (220°) 11.5mph 7°C 5°C
15/01/19 09:20 EGLF 150920Z 22008KT 9999 BKN025 06/04 Q1021 SW (220°) 9.2mph 6°C 4°C
15/01/19 08:20 EGLF 150820Z 22007KT 9999 BKN025 06/04 Q1021 SW (220°) 8.1mph 6°C 4°C
15/01/19 07:50 EGLF 150750Z 23009KT 9999 BKN025 06/04 Q1021 SW (230°) 10.4mph 6°C 4°C
15/01/19 07:20 EGLF 150720Z 23008KT 9999 BKN025 05/03 Q1021 SW (230°) 9.2mph 5°C 3°C
15/01/19 06:50 EGLF 150650Z 23007KT 9999 BKN024 05/03 Q1021 SW (230°) 8.1mph 5°C 3°C
14/01/19 20:50 EGLF 142050Z 23006KT 9999 SCT045 03/M01 Q1023 SW (230°) 6.9mph 3°C -1°C
14/01/19 20:20 EGLF 142020Z 26006KT 9999 SCT048 06/00 Q1023 W (260°) 6.9mph 6°C 0°C
14/01/19 19:50 EGLF 141950Z 25006KT 9999 SCT046 06/00 Q1023 WSW (250°) 6.9mph 6°C 0°C
14/01/19 19:20 EGLF 141920Z 24006KT 9999 BKN046 06/01 Q1023 WSW (240°) 6.9mph 6°C 1°C
14/01/19 18:50 EGLF 141850Z 25006KT 9999 BKN046 07/01 Q1023 WSW (250°) 6.9mph 7°C 1°C
14/01/19 18:20 EGLF 141820Z 26004KT 9999 BKN046 07/01 Q1023 W (260°) 4.6mph 7°C 1°C
14/01/19 17:50 EGLF 141750Z 24006KT 9999 BKN044 07/02 Q1023 WSW (240°) 6.9mph 7°C 2°C
14/01/19 17:20 EGLF 141720Z VRB03KT 9999 BKN043 08/02 Q1023 N (0°) 3.5mph 8°C 2°C
14/01/19 16:50 EGLF 141650Z 30006KT 9999 BKN044 08/02 Q1023 WNW (300°) 6.9mph 8°C 2°C
14/01/19 15:50 EGLF 141550Z 30007KT 280V340 9999 BKN041 08/02 Q1022 WNW (300°) 8.1mph 8°C 2°C
14/01/19 15:20 EGLF 141520Z 30009KT 260V340 9999 BKN040 08/02 Q1022 WNW (300°) 10.4mph 8°C 2°C
14/01/19 14:50 EGLF 141450Z 29007KT 260V320 9999 FEW020 BKN040 09/02 Q1022 WNW (290°) 8.1mph 9°C 2°C
14/01/19 13:50 EGLF 141350Z 32009KT 9999 FEW017 SCT029 BKN041 08/03 Q1022 NW (320°) 10.4mph 8°C 3°C
14/01/19 13:20 EGLF 141320Z 32009KT 280V350 9999 FEW030 BKN040 09/03 Q1022 NW (320°) 10.4mph 9°C 3°C
14/01/19 12:50 EGLF 141250Z 31009KT 270V350 9999 FEW028 SCT034 09/03 Q1022 NW (310°) 10.4mph 9°C 3°C
14/01/19 12:20 EGLF 141220Z 32008KT 9999 FEW028 SCT040 08/03 Q1022 NW (320°) 9.2mph 8°C 3°C
14/01/19 11:50 EGLF 141150Z 31009KT 270V340 9999 FEW027 SCT032 BKN040 08/03 Q1022 NW (310°) 10.4mph 8°C 3°C
14/01/19 11:20 EGLF 141120Z 31008KT 280V350 9999 SCT028 BKN041 08/03 Q1022 NW (310°) 9.2mph 8°C 3°C
14/01/19 10:50 EGLF 141050Z 31008KT 270V350 9999 BKN029 08/03 Q1021 NW (310°) 9.2mph 8°C 3°C
14/01/19 10:20 EGLF 141020Z 28006KT 240V320 9999 SCT029 07/03 Q1021 W (280°) 6.9mph 7°C 3°C
14/01/19 09:50 EGLF 140950Z 26007KT 9999 FEW029 06/02 Q1021 W (260°) 8.1mph 6°C 2°C
14/01/19 09:20 EGLF 140920Z 28006KT 9999 SCT029 06/02 Q1021 W (280°) 6.9mph 6°C 2°C
14/01/19 08:50 EGLF 140850Z 29008KT 260V320 9999 SCT029 06/02 Q1020 WNW (290°) 9.2mph 6°C 2°C
14/01/19 08:20 EGLF 140820Z 28006KT 230V310 9999 SCT029 06/02 Q1020 W (280°) 6.9mph 6°C 2°C
14/01/19 07:50 EGLF 140750Z 28006KT 9999 SCT030 06/02 Q1019 W (280°) 6.9mph 6°C 2°C
14/01/19 06:50 EGLF 140650Z 27006KT 250V310 9999 BKN032 06/02 Q1019 W (270°) 6.9mph 6°C 2°C
13/01/19 19:50 EGLF 131950Z 29010KT 260V320 9999 FEW037 10/06 Q1013 WNW (290°) 11.5mph 10°C 6°C
13/01/19 19:20 EGLF 131920Z 27009KT 9999 BKN037 10/07 Q1012 W (270°) 10.4mph 10°C 7°C
13/01/19 18:50 EGLF 131850Z 27010KT 9999 SCT036 10/07 Q1012 W (270°) 11.5mph 10°C 7°C
13/01/19 18:20 EGLF 131820Z 26010KT 9999 FEW021 SCT040 10/07 Q1012 W (260°) 11.5mph 10°C 7°C
13/01/19 17:50 EGLF 131750Z 25012KT 9999 FEW026 BKN041 10/07 Q1012 WSW (250°) 13.8mph 10°C 7°C
13/01/19 17:20 EGLF 131720Z 26013KT 9999 BKN043 10/08 Q1012 W (260°) 15.0mph 10°C 8°C
13/01/19 16:50 EGLF 131650Z 27009KT 240V300 9999 SCT015 BKN020 10/08 Q1012 W (270°) 10.4mph 10°C 8°C
13/01/19 16:20 EGLF 131620Z 26011KT 240V300 9999 SCT014 BKN020 10/08 Q1012 W (260°) 12.7mph 10°C 8°C
13/01/19 15:50 EGLF 131550Z 27010KT 230V300 9999 -DZ SCT009 BKN012 10/08 Q1012 -DZ W (270°) 11.5mph 10°C 8°C
13/01/19 15:20 EGLF 131520Z 26013G25KT 9000 -DZ FEW009 BKN013 10/08 Q1012 -DZ W (260°) 15.0mph 28.8mph 10°C 8°C
13/01/19 14:50 EGLF 131450Z 26014KT 9999 BKN014 10/07 Q1013 W (260°) 16.1mph 10°C 7°C
13/01/19 14:20 EGLF 131420Z 27015KT 9999 BKN014 10/07 Q1012 W (270°) 17.3mph 10°C 7°C
13/01/19 13:50 EGLF 131350Z 27013G24KT 240V300 9999 BKN016 11/07 Q1013 W (270°) 15.0mph 27.6mph 11°C 7°C
13/01/19 13:20 EGLF 131320Z 27014KT 250V310 9999 SCT017 BKN023 11/07 Q1013 W (270°) 16.1mph 11°C 7°C
13/01/19 12:50 EGLF 131250Z 26013KT 240V300 9999 SCT018 SCT026 10/07 Q1013 W (260°) 15.0mph 10°C 7°C
13/01/19 12:20 EGLF 131220Z 27015KT 230V300 9999 FEW018 SCT025 10/07 Q1014 W (270°) 17.3mph 10°C 7°C
13/01/19 11:50 EGLF 131150Z 27014KT 240V310 9999 FEW020 10/07 Q1014 W (270°) 16.1mph 10°C 7°C
13/01/19 11:20 EGLF 131120Z 27012G28KT 240V310 9999 FEW040 10/06 Q1014 W (270°) 13.8mph 32.2mph 10°C 6°C
13/01/19 10:50 EGLF 131050Z 27010KT 250V320 9999 FEW030 10/06 Q1014 W (270°) 11.5mph 10°C 6°C
13/01/19 10:20 EGLF 131020Z 28009G23KT 230V310 9999 FEW030 09/06 Q1015 W (280°) 10.4mph 26.5mph 9°C 6°C
13/01/19 09:50 EGLF 130950Z 28010KT 230V320 9999 FEW030 09/06 Q1015 W (280°) 11.5mph 9°C 6°C
13/01/19 09:20 EGLF 130920Z 27012KT 230V300 9999 FEW030 09/06 Q1015 W (270°) 13.8mph 9°C 6°C
12/01/19 19:50 EGLF 121950Z 28008KT 250V320 9999 -RA FEW023 08/05 Q1020 -RA W (280°) 9.2mph 8°C 5°C
12/01/19 19:20 EGLF 121920Z 27007KT 9999 -RA FEW022 08/05 Q1020 -RA W (270°) 8.1mph 8°C 5°C
12/01/19 18:50 EGLF 121850Z 27010KT 240V300 9999 -RA FEW023 08/05 Q1020 -RA W (270°) 11.5mph 8°C 5°C
12/01/19 18:20 EGLF 121820Z 26009KT CAVOK 09/05 Q1020 W (260°) 10.4mph 9°C 5°C
12/01/19 17:50 EGLF 121750Z 27009KT 240V320 9999 -RA BKN040 09/05 Q1020 -RA W (270°) 10.4mph 9°C 5°C
12/01/19 17:20 EGLF 121720Z 25008KT 9999 -RA SCT040 09/05 Q1020 -RA WSW (250°) 9.2mph 9°C 5°C
12/01/19 16:50 EGLF 121650Z 26007KT 9999 -RA SCT040 09/05 Q1021 -RA W (260°) 8.1mph 9°C 5°C
12/01/19 16:20 EGLF 121620Z 29008KT 250V310 9999 -RA SCT035 09/04 Q1021 -RA WNW (290°) 9.2mph 9°C 4°C
12/01/19 15:50 EGLF 121550Z 29009KT 250V320 9999 -RA SCT035 09/05 Q1021 -RA WNW (290°) 10.4mph 9°C 5°C
12/01/19 15:20 EGLF 121520Z 28010KT 240V320 9999 SCT025 09/06 Q1021 W (280°) 11.5mph 9°C 6°C
12/01/19 14:50 EGLF 121450Z 28007KT 240V310 9999 BKN020 10/07 Q1021 W (280°) 8.1mph 10°C 7°C
12/01/19 14:20 EGLF 121420Z 29007KT 250V320 9999 SCT020 BKN030 10/06 Q1021 WNW (290°) 8.1mph 10°C 6°C
12/01/19 13:50 EGLF 121350Z 29009KT 240V320 9999 SCT022 BKN040 10/07 Q1021 WNW (290°) 10.4mph 10°C 7°C
12/01/19 13:20 EGLF 121320Z 28006KT 230V310 9999 SCT015 BKN040 09/07 Q1022 W (280°) 6.9mph 9°C 7°C
12/01/19 12:50 EGLF 121250Z 26008KT 240V300 9999 SCT015 BKN030 09/08 Q1022 W (260°) 9.2mph 9°C 8°C
12/01/19 12:20 EGLF 121220Z 25010KT 220V290 9999 SCT014 BKN020 09/08 Q1022 WSW (250°) 11.5mph 9°C 8°C
12/01/19 11:50 EGLF 121150Z 26010KT 230V290 4000 -DZ SCT010 BKN013 09/07 Q1023 -DZ W (260°) 11.5mph 9°C 7°C
12/01/19 11:20 EGLF 121120Z 25012KT 9999 SCT013 BKN026 09/07 Q1023 WSW (250°) 13.8mph 9°C 7°C
12/01/19 10:50 EGLF 121050Z 25012KT 9999 SCT013 BKN028 09/07 Q1023 WSW (250°) 13.8mph 9°C 7°C
12/01/19 10:20 EGLF 121020Z 26011KT 230V290 9999 FEW013 BKN030 09/07 Q1024 W (260°) 12.7mph 9°C 7°C
12/01/19 09:50 EGLF 120950Z 26011KT 230V290 9999 SCT013 BKN035 09/06 Q1024 W (260°) 12.7mph 9°C 6°C
12/01/19 09:20 EGLF 120920Z 26011KT 9999 BKN013 09/06 Q1024 W (260°) 12.7mph 9°C 6°C
12/01/19 08:50 EGLF 120850Z 25012KT 9999 BKN015 08/06 Q1024 WSW (250°) 13.8mph 8°C 6°C
12/01/19 08:20 EGLF 120820Z 25010KT 9999 BKN011 08/06 Q1024 WSW (250°) 11.5mph 8°C 6°C
12/01/19 07:50 EGLF 120750Z 25010KT 9999 BKN013 08/06 Q1025 WSW (250°) 11.5mph 8°C 6°C
11/01/19 21:50 EGLF 112150Z 26005KT 9999 BKN032 07/03 Q1030 W (260°) 5.8mph 7°C 3°C
11/01/19 21:20 EGLF 112120Z 27005KT 230V300 9999 BKN032 06/03 Q1030 W (270°) 5.8mph 6°C 3°C
11/01/19 20:50 EGLF 112050Z 27004KT 240V300 9999 BKN030 07/03 Q1030 W (270°) 4.6mph 7°C 3°C
11/01/19 20:20 EGLF 112020Z 27004KT 9999 SCT030 06/03 Q1030 W (270°) 4.6mph 6°C 3°C
11/01/19 19:50 EGLF 111950Z 29004KT 260V320 9999 BKN026 06/04 Q1030 WNW (290°) 4.6mph 6°C 4°C
11/01/19 19:20 EGLF 111920Z 29005KT 9999 BKN025 06/04 Q1031 WNW (290°) 5.8mph 6°C 4°C
11/01/19 18:50 EGLF 111850Z 28005KT 240V310 9999 BKN026 06/04 Q1031 W (280°) 5.8mph 6°C 4°C
11/01/19 18:20 EGLF 111820Z 28004KT 240V320 9999 FEW024 SCT029 06/04 Q1031 W (280°) 4.6mph 6°C 4°C
11/01/19 17:50 EGLF 111750Z 27004KT 230V300 9999 FEW030 05/04 Q1031 W (270°) 4.6mph 5°C 4°C
11/01/19 17:20 EGLF 111720Z 26004KT 9999 FEW032 04/03 Q1030 W (260°) 4.6mph 4°C 3°C
11/01/19 16:50 EGLF 111650Z 26004KT 230V290 CAVOK 05/03 Q1031 W (260°) 4.6mph 5°C 3°C
11/01/19 16:20 EGLF 111620Z 28004KT 240V310 CAVOK 06/04 Q1030 W (280°) 4.6mph 6°C 4°C
11/01/19 15:50 EGLF 111550Z 29005KT 250V320 CAVOK 06/04 Q1030 WNW (290°) 5.8mph 6°C 4°C
11/01/19 15:20 EGLF 111520Z 29005KT 9999 FEW015 07/04 Q1030 WNW (290°) 5.8mph 7°C 4°C
11/01/19 14:50 EGLF 111450Z 30006KT 9999 FEW015 07/05 Q1030 WNW (300°) 6.9mph 7°C 5°C
11/01/19 13:50 EGLF 111350Z 31005KT 9000 FEW014 08/05 Q1030 NW (310°) 5.8mph 8°C 5°C
11/01/19 13:20 EGLF 111320Z 31008KT 9000 FEW040 07/05 Q1030 NW (310°) 9.2mph 7°C 5°C
11/01/19 12:50 EGLF 111250Z 32006KT 9000 FEW022 07/05 Q1030 NW (320°) 6.9mph 7°C 5°C
11/01/19 12:20 EGLF 111220Z 30006KT 270V330 9000 FEW022 07/05 Q1030 WNW (300°) 6.9mph 7°C 5°C
11/01/19 11:50 EGLF 111150Z 29004KT 250V320 9000 FEW022 07/05 Q1031 WNW (290°) 4.6mph 7°C 5°C
11/01/19 11:20 EGLF 111120Z 29005KT 250V310 8000 VCSH SCT022 07/05 Q1031 VCSH WNW (290°) 5.8mph 7°C 5°C
11/01/19 10:50 EGLF 111050Z 29004KT 260V330 8000 VCSH FEW022 BKN035 06/05 Q1031 VCSH WNW (290°) 4.6mph 6°C 5°C
11/01/19 10:20 EGLF 111020Z 30004KT 260V330 8000 VCSH FEW025 BKN033 06/05 Q1031 VCSH WNW (300°) 4.6mph 6°C 5°C
11/01/19 09:50 EGLF 110950Z 29005KT 8000 VCSH SCT029 BKN033 06/05 Q1031 VCSH WNW (290°) 5.8mph 6°C 5°C
11/01/19 09:20 EGLF 110920Z 28005KT 250V310 8000 VCSH SCT026 BKN033 05/04 Q1030 VCSH W (280°) 5.8mph 5°C 4°C
11/01/19 08:50 EGLF 110850Z 29005KT 7000 -DZ SCT018 BKN030 05/04 Q1030 -DZ WNW (290°) 5.8mph 5°C 4°C
11/01/19 08:20 EGLF 110820Z 29006KT 7000 -DZ SCT018 BKN027 06/04 Q1030 -DZ WNW (290°) 6.9mph 6°C 4°C
11/01/19 07:50 EGLF 110750Z 29004KT 6000 -DZ SCT015 BKN024 06/05 Q1030 -DZ WNW (290°) 4.6mph 6°C 5°C
11/01/19 07:20 EGLF 110720Z VRB03KT 9999 -DZ SCT015 BKN022 06/05 Q1030 -DZ N (0°) 3.5mph 6°C 5°C
11/01/19 06:50 EGLF 110650Z 29003KT 9999 -DZ BKN018 06/05 Q1029 -DZ WNW (290°) 3.5mph 6°C 5°C
10/01/19 21:20 EGLF 102120Z 29004KT 260V320 6000 BKN005 05/04 Q1030 WNW (290°) 4.6mph 5°C 4°C
10/01/19 20:50 EGLF 102050Z 29006KT 7000 BKN005 05/04 Q1030 WNW (290°) 6.9mph 5°C 4°C
10/01/19 20:20 EGLF 102020Z 29005KT 7000 BKN005 05/04 Q1030 WNW (290°) 5.8mph 5°C 4°C
10/01/19 19:50 EGLF 101950Z 27004KT 250V320 7000 BKN005 04/03 Q1030 W (270°) 4.6mph 4°C 3°C
10/01/19 19:20 EGLF 101920Z 28004KT 240V330 8000 BKN005 04/03 Q1029 W (280°) 4.6mph 4°C 3°C
10/01/19 18:50 EGLF 101850Z 28004KT 240V320 9000 BKN005 04/03 Q1029 W (280°) 4.6mph 4°C 3°C
10/01/19 18:20 EGLF 101820Z 28004KT 240V330 9999 BKN005 04/03 Q1029 W (280°) 4.6mph 4°C 3°C
10/01/19 17:50 EGLF 101750Z 29006KT 250V320 9999 BKN006 04/02 Q1029 WNW (290°) 6.9mph 4°C 2°C
10/01/19 17:20 EGLF 101720Z 30005KT 260V320 9999 BKN008 04/01 Q1029 WNW (300°) 5.8mph 4°C 1°C
10/01/19 16:50 EGLF 101650Z 29006KT 9999 BKN010 04/01 Q1029 WNW (290°) 6.9mph 4°C 1°C
10/01/19 16:20 EGLF 101620Z 29005KT 260V320 9999 SCT012 BKN040 04/01 Q1029 WNW (290°) 5.8mph 4°C 1°C
10/01/19 15:50 EGLF 101550Z 28004KT 250V320 9999 BKN014 BKN040 04/00 Q1030 W (280°) 4.6mph 4°C 0°C
10/01/19 15:20 EGLF 101520Z 29005KT 9999 BKN013 04/00 Q1030 WNW (290°) 5.8mph 4°C 0°C
10/01/19 14:50 EGLF 101450Z 30006KT 270V330 9999 BKN012 04/01 Q1030 WNW (300°) 6.9mph 4°C 1°C
10/01/19 14:20 EGLF 101420Z 29006KT 260V330 9999 SCT012 BKN046 04/00 Q1030 WNW (290°) 6.9mph 4°C 0°C